Metar Cercanos

 

LEPA - Palma De Mallorc, Spain
Distance from station: ONO 38km
Actualización: 12/12/2018 14:30
Few Clouds
Few Clouds
 Viento del SSO
Viento: SSO 13 km/h
Temperatura: 17°C
Rocío: 11°C
Humedad: 68%
Barómetro: 1017 hPa
Clouds: Few Clouds
Visibility: 10 km
Cloud details: Few Clouds 914 m
2018/12/12 13:30 LEPA 121330Z 20007KT 160V240 9999 FEW030 17/11 Q1017 NOSIG
LEMH - Mahon/Menorca Is, Spain
Distance from station: ENE 105km
Actualización: 12/12/2018 14:30
Few Clouds
Few Clouds
 Viento del varies
Viento: varies 4 km/h
Temperatura: 16°C
Rocío: 10°C
Humedad: 68%
Barómetro: 1017 hPa
Clouds: Few Clouds
Visibility: 10 km
Cloud details: Few Clouds 640 m
2018/12/12 13:30 LEMH 121330Z VRB02KT 9999 FEW021 16/10 Q1017
 
LEIB - Ibiza/Es Codola, Spain
Distance from station: OSO 165km
Actualización: 12/12/2018 14:30
Few Clouds
Few Clouds
 Viento del S
Viento: S 7 km/h
Temperatura: 18°C
Rocío: 12°C
Humedad: 68%
Barómetro: 1018 hPa
Clouds: Few Clouds
Visibility: 10 km
Cloud details: Few Clouds 671 m
2018/12/12 13:30 LEIB 121330Z 19004KT 150V220 9999 FEW022 18/12 Q1018 NOSIG
LEBL - Barcelona Airpor, Spain
Distance from station: NNO 225km
Actualización: 12/12/2018 14:30
Few Clouds
Few Clouds
 Viento del SE
Viento: SE 7 km/h
Temperatura: 15°C
Rocío: 9°C
Humedad: 68%
Barómetro: 1017 hPa
Clouds: Few Clouds
Visibility: 10 km
Cloud details: Few Clouds 853 m
2018/12/12 13:30 LEBL 121330Z 13004KT 070V170 9999 FEW028 15/09 Q1017 NOSIG
 
LEVC - Valencia (civ/Mi, Spain
Distance from station: NO 188km
Actualización: 12/12/2018 14:30
Despejado
Despejado
 Viento del SO
Viento: SO 13 km/h
Temperatura: 19°C
Rocío: 5°C
Humedad: 40%
Barómetro: 1017 hPa
Resumen: Despejado
Visibility: greater than 10 km
2018/12/12 13:30 LEVC 121330Z 23007KT CAVOK 19/05 Q1017 NOSIG
LEGE - Gerona/Costa Bra, Spain
Distance from station: N 276km
Actualización: 12/12/2018 14:30
Few Clouds
Few Clouds
 Viento del S
Viento: S 11 km/h
Temperatura: 13°C
Rocío: 9°C
Humedad: 77%
Barómetro: 1017 hPa
Clouds: Few Clouds
Visibility: 10 km
Cloud details: Few Clouds 640 m
2018/12/12 13:30 LEGE 121330Z 19006KT 150V250 9999 FEW021 13/09 Q1017
 
LEAL - Alicante/El Alte, Spain
Distance from station: OSO 344km
Actualización: 12/12/2018 14:30
Despejado
Despejado
 Viento del E
Viento: E 11 km/h
Temperatura: 18°C
Rocío: 9°C
Humedad: 56%
Barómetro: 1018 hPa
Resumen: Despejado
Visibility: greater than 10 km
2018/12/12 13:30 LEAL 121330Z 10006KT 070V130 CAVOK 18/09 Q1018 NOSIG
LEAM - Almeria Airport, Spain
Distance from station: SSO 56km
Actualización: 12/12/2018 14:30
Despejado
Despejado
 Viento del SSO
Viento: SSO 9 km/h
Temperatura: 17°C
Rocío: 12°C
Humedad: 73%
Barómetro: 1019 hPa
Resumen: Despejado
Visibility: greater than 10 km
2018/12/12 13:30 LEAM 121330Z 20005KT 160V240 CAVOK 17/12 Q1019
 
LEZG - Zaragoza (mil/Ci, Spain
Distance from station: NO 431km
Actualización: 12/12/2018 14:30
Few Clouds
Few Clouds
 Viento del NO
Viento: NO 11 km/h
Temperatura: 15°C
Rocío: 7°C
Humedad: 59%
Barómetro: 1018 hPa
Clouds: Few Clouds
Visibility: 10 km
Cloud details: Few Clouds 1219 m
2018/12/12 13:30 LEZG 121330Z 31006KT 280V340 9999 FEW040 15/07 Q1018
LEMD - Madrid/Barajas, Spain
Distance from station: ONO 234km
Actualización: 12/12/2018 14:30
Mist, Cubierto
Mist, Cubierto
 Viento del varies
Viento: varies 4 km/h
Temperatura: 6°C
Rocío: 6°C
Humedad: 100%
Barómetro: 1020 hPa
Resumen: Mist
Clouds: Cubierto
Visibility: 4 km
Cloud details: Muy nuboso 152 m
Cubierto 305 m
2018/12/12 13:30 LEMD 121330Z VRB02KT 4000 BR BKN005 OVC010 06/06 Q1020 BECMG 5000 BR BKN008
 
LEGR - Granada Airport, Spain
Distance from station: OSO 62km
Actualización: 12/12/2018 14:30
Despejado
Despejado
 Viento del varies
Viento: varies 2 km/h
Temperatura: 13°C
Rocío: 7°C
Humedad: 67%
Barómetro: 1021 hPa
Resumen: Despejado
Visibility: greater than 10 km
2018/12/12 13:30 LEGR 121330Z VRB01KT CAVOK 13/07 Q1021
LEMG - Malaga (civ/Mil), Spain
Distance from station: OSO 227km
Actualización: 12/12/2018 14:30
Few Clouds
Few Clouds
 Viento del ONO
Viento: ONO 20 km/h
Temperatura: 20°C
Rocío: 10°C
Humedad: 53%
Barómetro: 1020 hPa
Clouds: Few Clouds
Visibility: 10 km
Cloud details: Few Clouds 610 m
2018/12/12 13:30 LEMG 121330Z 30011KT 9999 FEW020 20/10 Q1020 NOSIG
 
LEZL - Sevilla (civ/Mil, Spain
Distance from station: S 318km
Actualización: 12/12/2018 14:30
Few Clouds
Few Clouds
 Viento del calm
Viento: Calma
Temperatura: 19°C
Rocío: 10°C
Humedad: 56%
Barómetro: 1021 hPa
Clouds: Few Clouds
Visibility: 10 km
Cloud details: Few Clouds 1372 m
2018/12/12 13:30 LEZL 121330Z 00000KT 9999 FEW045 19/10 Q1021 NOSIG
LEVT - Vitoria, Spain
Distance from station: NO 226km
Actualización: 12/12/2018 14:30
Muy nuboso
Muy nuboso
 Viento del calm
Viento: Calma
Temperatura: 10°C
Rocío: 6°C
Humedad: 76%
Barómetro: 1018 hPa
Clouds: Muy nuboso
Visibility: 10 km
Cloud details: Parcialmente nuboso 762 m
Muy nuboso 2134 m
2018/12/12 13:30 LEVT 121330Z 00000KT 9999 SCT025 BKN070 10/06 Q1018
 
LEBB - Bilbao/Sondica, Spain
Distance from station: NNO 235km
Actualización: 12/12/2018 14:30
Muy nuboso
Muy nuboso
 Viento del ESE
Viento: ESE 6 km/h
Temperatura: 13°C
Rocío: 10°C
Humedad: 82%
Barómetro: 1019 hPa
Clouds: Muy nuboso
Visibility: 10 km
Cloud details: Muy nuboso 1676 m
2018/12/12 13:30 LEBB 121330Z 11003KT 070V150 9999 BKN055 13/10 Q1019 NOSIG
LESO - San Sebastian/Fu, Spain
Distance from station: N 231km
Actualización: 12/12/2018 14:30
Few Clouds
Few Clouds
 Viento del OSO
Viento: OSO 7 km/h
Temperatura: 13°C
Rocío: 9°C
Humedad: 77%
Barómetro: 1019 hPa
Clouds: Few Clouds
Visibility: 10 km
Cloud details: Few Clouds 762 m
2018/12/12 13:30 LESO 121330Z 24004KT 210V290 9999 FEW025 13/09 Q1019
 
LEVD - Valladolid(Mil/C, Spain
Distance from station: ONO 239km
Actualización: 12/12/2018 14:30
Cubierto
Cubierto
 Viento del OSO
Viento: OSO 17 km/h
Temperatura: 5°C
Sensación frio: 2°C
Rocío: 5°C
Humedad: 100%
Barómetro: 1019 hPa
Clouds: Cubierto
Visibility: 6 km
Cloud details: Cubierto 91 m
2018/12/12 13:30 LEVD 121330Z 25009KT 6000 OVC003 05/05 Q1019
LESA - Salamanca (civ/M, Spain
Distance from station: ONO 349km
Actualización: 12/12/2018 14:30
Cubierto
Cubierto
 Viento del O
Viento: O 20 km/h
Temperatura: 7°C
Sensación frio: 4°C
Rocío: 5°C
Humedad: 87%
Barómetro: 1020 hPa
Clouds: Cubierto
Visibility: 6 km
Cloud details: Cubierto 305 m
2018/12/12 13:30 LESA 121330Z 28011KT 6000 OVC010 07/05 Q1020
 
LEXJ - Santander/Paraya, Spain
Distance from station: NNO 247km
Actualización: 12/12/2018 14:30
Few Clouds
Few Clouds
 Viento del E
Viento: E 4 km/h
Temperatura: 13°C
Rocío: 8°C
Humedad: 72%
Barómetro: 1018 hPa
Clouds: Few Clouds
Visibility: 10 km
Cloud details: Few Clouds 1585 m
2018/12/12 13:30 LEXJ 121330Z 10002KT 9999 FEW052 13/08 Q1018
LEAS - Asturias/Aviles, Spain
Distance from station: NO 214km
Actualización: 12/12/2018 14:30
Few Clouds
Few Clouds
 Viento del SSE
Viento: SSE 6 km/h
Temperatura: 12°C
Rocío: 8°C
Humedad: 77%
Barómetro: 1017 hPa
Clouds: Few Clouds
Visibility: 10 km
Cloud details: Few Clouds 549 m
2018/12/12 13:30 LEAS 121330Z 15003KT 100V200 9999 FEW018 12/08 Q1017 NOSIG
 
LECO - La Coruna/Alvedr, Spain
Distance from station: ONO 222km
Actualización: 12/12/2018 14:30
Parcialmente nuboso
Parcialmente nuboso
 Viento del SSE
Viento: SSE 13 km/h
Temperatura: 12°C
Rocío: 9°C
Humedad: 82%
Barómetro: 1016 hPa
Clouds: Parcialmente nuboso
Visibility: 10 km
Cloud details: Few Clouds 549 m
Parcialmente nuboso 671 m
2018/12/12 13:30 LECO 121330Z 15007KT 080V200 9999 FEW018 SCT022 12/09 Q1016 NOSIG
LEVX - Vigo/Peinador, Spain
Distance from station: O 214km
Actualización: 12/12/2018 14:30
Muy nuboso
Muy nuboso
 Viento del SSO
Viento: SSO 17 km/h
Temperatura: 12°C
Rocío: 10°C
Humedad: 88%
Barómetro: 1017 hPa
Clouds: Muy nuboso
Visibility: 8 km
Cloud details: Parcialmente nuboso 396 m
Muy nuboso 610 m
Muy nuboso 853 m
2018/12/12 13:30 LEVX 121330Z 20009KT 150V240 8000 SCT013 BKN020 BKN028 12/10 Q1017 NOSIG